sensor_id;sensor_type;location;lat;lon;timestamp;pressure;altitude;pressure_sealevel;temperature;humidity
63006;BME280;53704;52.532;6.426;2022-07-29T00:01:15;101799.88;;;14.04;73.19
63006;BME280;53704;52.532;6.426;2022-07-29T00:03:41;101809.97;;;13.94;72.93
63006;BME280;53704;52.532;6.426;2022-07-29T00:06:07;101804.84;;;13.83;74.00
63006;BME280;53704;52.532;6.426;2022-07-29T00:08:32;101802.97;;;13.83;73.35
63006;BME280;53704;52.532;6.426;2022-07-29T00:10:58;101796.91;;;13.89;73.32
63006;BME280;53704;52.532;6.426;2022-07-29T00:13:23;101804.53;;;13.94;73.35
63006;BME280;53704;52.532;6.426;2022-07-29T00:15:49;101804.63;;;13.76;73.78
63006;BME280;53704;52.532;6.426;2022-07-29T00:18:14;101792.00;;;13.93;73.13
63006;BME280;53704;52.532;6.426;2022-07-29T00:20:39;101794.69;;;13.85;73.16
63006;BME280;53704;52.532;6.426;2022-07-29T00:23:05;101788.25;;;13.78;73.69
63006;BME280;53704;52.532;6.426;2022-07-29T00:25:30;101792.47;;;13.80;73.48
63006;BME280;53704;52.532;6.426;2022-07-29T00:27:56;101779.41;;;13.75;73.53
63006;BME280;53704;52.532;6.426;2022-07-29T00:30:22;101780.28;;;13.76;73.76
63006;BME280;53704;52.532;6.426;2022-07-29T00:32:48;101783.41;;;13.98;73.86
63006;BME280;53704;52.532;6.426;2022-07-29T00:35:13;101774.06;;;13.84;73.24
63006;BME280;53704;52.532;6.426;2022-07-29T00:37:57;101759.47;;;13.77;73.77
63006;BME280;53704;52.532;6.426;2022-07-29T00:40:23;101758.41;;;13.69;74.00
63006;BME280;53704;52.532;6.426;2022-07-29T00:42:49;101764.50;;;13.63;74.08
63006;BME280;53704;52.532;6.426;2022-07-29T00:45:16;101761.66;;;13.73;74.27
63006;BME280;53704;52.532;6.426;2022-07-29T00:47:42;101757.44;;;13.79;73.53
63006;BME280;53704;52.532;6.426;2022-07-29T00:50:10;101760.28;;;13.69;73.52
63006;BME280;53704;52.532;6.426;2022-07-29T00:52:37;101763.31;;;13.66;73.88
63006;BME280;53704;52.532;6.426;2022-07-29T00:55:04;101760.84;;;13.81;73.83
63006;BME280;53704;52.532;6.426;2022-07-29T00:57:30;101762.38;;;13.83;73.33
63006;BME280;53704;52.532;6.426;2022-07-29T00:59:56;101755.28;;;13.82;72.82
63006;BME280;53704;52.532;6.426;2022-07-29T01:02:22;101735.44;;;13.73;73.19
63006;BME280;53704;52.532;6.426;2022-07-29T01:04:48;101743.22;;;13.77;73.70
63006;BME280;53704;52.532;6.426;2022-07-29T01:07:14;101750.34;;;13.78;73.79
63006;BME280;53704;52.532;6.426;2022-07-29T01:09:41;101741.28;;;13.61;73.63
63006;BME280;53704;52.532;6.426;2022-07-29T01:12:07;101735.09;;;13.68;74.00
63006;BME280;53704;52.532;6.426;2022-07-29T01:14:34;101730.16;;;13.64;73.81
63006;BME280;53704;52.532;6.426;2022-07-29T01:17:26;101736.56;;;13.63;73.87
63006;BME280;53704;52.532;6.426;2022-07-29T01:31:03;101721.56;;;13.68;72.68
63006;BME280;53704;52.532;6.426;2022-07-29T01:33:33;101713.44;;;13.68;72.88
63006;BME280;53704;52.532;6.426;2022-07-29T01:36:32;101712.34;;;13.53;72.90
63006;BME280;53704;52.532;6.426;2022-07-29T01:39:14;101711.56;;;13.69;72.50
63006;BME280;53704;52.532;6.426;2022-07-29T01:42:10;101706.59;;;13.56;73.17
63006;BME280;53704;52.532;6.426;2022-07-29T01:44:45;101709.16;;;13.57;73.68
63006;BME280;53704;52.532;6.426;2022-07-29T01:47:19;101715.78;;;13.63;72.67
63006;BME280;53704;52.532;6.426;2022-07-29T01:49:51;101710.25;;;13.73;72.59
63006;BME280;53704;52.532;6.426;2022-07-29T01:52:34;101707.59;;;13.55;72.70
63006;BME280;53704;52.532;6.426;2022-07-29T01:55:06;101703.25;;;13.62;72.71
63006;BME280;53704;52.532;6.426;2022-07-29T01:57:34;101694.66;;;13.67;72.48
63006;BME280;53704;52.532;6.426;2022-07-29T02:00:02;101693.59;;;13.60;72.43
63006;BME280;53704;52.532;6.426;2022-07-29T02:02:30;101679.06;;;13.61;73.13
63006;BME280;53704;52.532;6.426;2022-07-29T02:04:58;101676.53;;;13.59;73.00
63006;BME280;53704;52.532;6.426;2022-07-29T02:07:28;101672.66;;;13.62;72.46
63006;BME280;53704;52.532;6.426;2022-07-29T02:09:55;101676.03;;;13.64;72.82
63006;BME280;53704;52.532;6.426;2022-07-29T02:12:24;101678.75;;;13.64;72.21
63006;BME280;53704;52.532;6.426;2022-07-29T02:14:52;101673.47;;;13.54;73.12
63006;BME280;53704;52.532;6.426;2022-07-29T02:17:25;101673.78;;;13.51;72.78
63006;BME280;53704;52.532;6.426;2022-07-29T02:19:54;101678.75;;;13.64;72.17
63006;BME280;53704;52.532;6.426;2022-07-29T02:22:22;101684.00;;;13.65;72.15
63006;BME280;53704;52.532;6.426;2022-07-29T02:24:50;101691.78;;;13.68;72.18
63006;BME280;53704;52.532;6.426;2022-07-29T02:27:18;101688.97;;;13.44;72.99
63006;BME280;53704;52.532;6.426;2022-07-29T02:29:46;101682.22;;;13.48;72.69
63006;BME280;53704;52.532;6.426;2022-07-29T02:32:13;101684.91;;;13.39;73.30
63006;BME280;53704;52.532;6.426;2022-07-29T02:34:39;101686.13;;;13.53;72.74
63006;BME280;53704;52.532;6.426;2022-07-29T02:37:09;101690.00;;;13.43;73.54
63006;BME280;53704;52.532;6.426;2022-07-29T02:39:36;101679.50;;;13.39;73.49
63006;BME280;53704;52.532;6.426;2022-07-29T02:42:05;101687.66;;;13.56;73.00
63006;BME280;53704;52.532;6.426;2022-07-29T02:44:33;101679.53;;;13.48;73.99
63006;BME280;53704;52.532;6.426;2022-07-29T02:52:57;101679.56;;;13.56;72.60
63006;BME280;53704;52.532;6.426;2022-07-29T02:55:34;101670.19;;;13.42;73.67
63006;BME280;53704;52.532;6.426;2022-07-29T03:00:55;101663.28;;;13.48;73.91
63006;BME280;53704;52.532;6.426;2022-07-29T03:03:22;101660.88;;;13.36;73.32
63006;BME280;53704;52.532;6.426;2022-07-29T03:05:54;101668.56;;;13.31;74.15
63006;BME280;53704;52.532;6.426;2022-07-29T03:08:22;101673.78;;;13.25;74.61
63006;BME280;53704;52.532;6.426;2022-07-29T03:10:48;101671.97;;;13.25;74.06
63006;BME280;53704;52.532;6.426;2022-07-29T03:13:14;101674.31;;;13.28;74.09
63006;BME280;53704;52.532;6.426;2022-07-29T03:15:43;101672.13;;;13.24;74.25
63006;BME280;53704;52.532;6.426;2022-07-29T03:18:09;101662.16;;;13.32;73.90
63006;BME280;53704;52.532;6.426;2022-07-29T03:20:35;101651.34;;;13.32;73.57
63006;BME280;53704;52.532;6.426;2022-07-29T03:23:01;101665.53;;;13.26;74.56
63006;BME280;53704;52.532;6.426;2022-07-29T03:25:27;101671.38;;;13.39;73.60
63006;BME280;53704;52.532;6.426;2022-07-29T03:27:52;101673.16;;;13.31;74.02
63006;BME280;53704;52.532;6.426;2022-07-29T03:30:18;101671.38;;;13.13;74.96
63006;BME280;53704;52.532;6.426;2022-07-29T03:32:43;101663.94;;;13.15;74.90
63006;BME280;53704;52.532;6.426;2022-07-29T03:35:09;101659.75;;;13.21;74.58
63006;BME280;53704;52.532;6.426;2022-07-29T03:37:34;101673.13;;;13.23;74.80
63006;BME280;53704;52.532;6.426;2022-07-29T03:40:03;101672.19;;;13.14;74.95
63006;BME280;53704;52.532;6.426;2022-07-29T03:42:32;101670.84;;;13.10;75.00
63006;BME280;53704;52.532;6.426;2022-07-29T03:45:02;101668.19;;;13.18;74.58
63006;BME280;53704;52.532;6.426;2022-07-29T03:47:29;101676.78;;;13.13;74.88
63006;BME280;53704;52.532;6.426;2022-07-29T03:50:00;101673.31;;;13.29;74.49
63006;BME280;53704;52.532;6.426;2022-07-29T03:52:27;101675.78;;;13.14;75.05
63006;BME280;53704;52.532;6.426;2022-07-29T03:54:53;101673.56;;;13.10;75.38
63006;BME280;53704;52.532;6.426;2022-07-29T03:57:20;101667.53;;;13.24;74.86
63006;BME280;53704;52.532;6.426;2022-07-29T03:59:48;101669.56;;;13.22;74.72
63006;BME280;53704;52.532;6.426;2022-07-29T04:02:14;101671.69;;;13.10;75.92
63006;BME280;53704;52.532;6.426;2022-07-29T04:04:39;101674.59;;;13.17;74.89
63006;BME280;53704;52.532;6.426;2022-07-29T04:07:05;101666.44;;;13.09;75.93
63006;BME280;53704;52.532;6.426;2022-07-29T04:09:31;101660.34;;;13.07;75.58
63006;BME280;53704;52.532;6.426;2022-07-29T04:11:57;101660.31;;;12.98;76.06
63006;BME280;53704;52.532;6.426;2022-07-29T04:14:22;101657.16;;;12.85;76.27
63006;BME280;53704;52.532;6.426;2022-07-29T04:16:48;101660.06;;;12.92;76.08
63006;BME280;53704;52.532;6.426;2022-07-29T04:19:13;101657.06;;;12.95;76.66
63006;BME280;53704;52.532;6.426;2022-07-29T04:21:39;101665.59;;;13.08;76.25
63006;BME280;53704;52.532;6.426;2022-07-29T04:24:06;101674.72;;;13.07;76.27
63006;BME280;53704;52.532;6.426;2022-07-29T04:26:32;101672.44;;;12.94;77.37
63006;BME280;53704;52.532;6.426;2022-07-29T04:28:57;101673.50;;;13.01;76.31
63006;BME280;53704;52.532;6.426;2022-07-29T04:31:22;101676.84;;;12.95;76.75
63006;BME280;53704;52.532;6.426;2022-07-29T04:33:48;101673.44;;;12.93;76.95
63006;BME280;53704;52.532;6.426;2022-07-29T04:36:13;101664.97;;;12.88;76.50
63006;BME280;53704;52.532;6.426;2022-07-29T04:38:39;101674.03;;;13.05;75.55
63006;BME280;53704;52.532;6.426;2022-07-29T04:41:05;101681.09;;;13.32;75.93
63006;BME280;53704;52.532;6.426;2022-07-29T04:43:35;101680.91;;;13.26;75.39
63006;BME280;53704;52.532;6.426;2022-07-29T04:46:00;101684.88;;;13.13;76.14
63006;BME280;53704;52.532;6.426;2022-07-29T04:48:26;101679.44;;;13.05;76.17
63006;BME280;53704;52.532;6.426;2022-07-29T04:50:52;101685.25;;;13.18;76.17
63006;BME280;53704;52.532;6.426;2022-07-29T04:53:17;101690.88;;;13.25;75.62
63006;BME280;53704;52.532;6.426;2022-07-29T04:55:43;101688.50;;;13.22;75.72
63006;BME280;53704;52.532;6.426;2022-07-29T04:58:11;101683.25;;;13.20;75.71
63006;BME280;53704;52.532;6.426;2022-07-29T05:00:37;101691.78;;;13.34;76.27
63006;BME280;53704;52.532;6.426;2022-07-29T05:03:03;101691.25;;;13.30;76.92
63006;BME280;53704;52.532;6.426;2022-07-29T05:05:28;101690.91;;;13.60;75.00
63006;BME280;53704;52.532;6.426;2022-07-29T05:07:54;101694.06;;;13.47;76.11
63006;BME280;53704;52.532;6.426;2022-07-29T05:10:20;101687.66;;;13.56;76.70
63006;BME280;53704;52.532;6.426;2022-07-29T05:12:45;101689.38;;;13.31;75.85
63006;BME280;53704;52.532;6.426;2022-07-29T05:15:11;101684.75;;;13.41;75.73
63006;BME280;53704;52.532;6.426;2022-07-29T05:17:37;101682.19;;;13.39;75.48
63006;BME280;53704;52.532;6.426;2022-07-29T05:20:03;101679.97;;;13.35;76.31
63006;BME280;53704;52.532;6.426;2022-07-29T05:22:29;101674.09;;;13.21;76.50
63006;BME280;53704;52.532;6.426;2022-07-29T05:24:54;101666.81;;;13.40;75.28
63006;BME280;53704;52.532;6.426;2022-07-29T05:27:19;101680.84;;;13.44;75.85
63006;BME280;53704;52.532;6.426;2022-07-29T05:29:45;101673.19;;;13.73;75.46
63006;BME280;53704;52.532;6.426;2022-07-29T05:32:10;101669.00;;;13.36;76.47
63006;BME280;53704;52.532;6.426;2022-07-29T05:34:36;101665.97;;;13.39;76.30
63006;BME280;53704;52.532;6.426;2022-07-29T05:37:01;101668.75;;;13.56;76.31
63006;BME280;53704;52.532;6.426;2022-07-29T05:39:27;101665.50;;;13.44;75.96
63006;BME280;53704;52.532;6.426;2022-07-29T05:41:52;101665.88;;;13.57;76.83
63006;BME280;53704;52.532;6.426;2022-07-29T05:44:18;101669.47;;;13.66;75.39
63006;BME280;53704;52.532;6.426;2022-07-29T05:46:43;101672.50;;;13.63;75.43
63006;BME280;53704;52.532;6.426;2022-07-29T05:49:08;101670.84;;;13.79;75.54
63006;BME280;53704;52.532;6.426;2022-07-29T05:51:34;101682.38;;;13.81;75.53
63006;BME280;53704;52.532;6.426;2022-07-29T05:54:00;101687.44;;;13.84;74.86
63006;BME280;53704;52.532;6.426;2022-07-29T05:56:26;101689.75;;;13.70;74.84
63006;BME280;53704;52.532;6.426;2022-07-29T05:58:52;101693.88;;;13.83;76.06
63006;BME280;53704;52.532;6.426;2022-07-29T06:01:18;101690.38;;;14.07;76.18
63006;BME280;53704;52.532;6.426;2022-07-29T06:03:43;101693.63;;;14.10;75.89
63006;BME280;53704;52.532;6.426;2022-07-29T06:06:09;101689.03;;;14.11;74.44
63006;BME280;53704;52.532;6.426;2022-07-29T06:08:35;101702.09;;;14.16;75.67
63006;BME280;53704;52.532;6.426;2022-07-29T06:11:01;101700.53;;;14.13;74.93
63006;BME280;53704;52.532;6.426;2022-07-29T06:13:27;101704.94;;;14.06;74.53
63006;BME280;53704;52.532;6.426;2022-07-29T06:15:52;101695.78;;;14.07;75.59
63006;BME280;53704;52.532;6.426;2022-07-29T06:18:18;101701.75;;;14.10;74.45
63006;BME280;53704;52.532;6.426;2022-07-29T06:20:46;101697.97;;;14.03;76.09
63006;BME280;53704;52.532;6.426;2022-07-29T06:23:11;101697.84;;;14.13;75.43
63006;BME280;53704;52.532;6.426;2022-07-29T06:25:36;101709.50;;;14.14;74.98
63006;BME280;53704;52.532;6.426;2022-07-29T06:28:03;101707.84;;;14.37;74.75
63006;BME280;53704;52.532;6.426;2022-07-29T06:30:28;101722.25;;;14.38;75.13
63006;BME280;53704;52.532;6.426;2022-07-29T06:32:54;101719.25;;;14.65;73.51
63006;BME280;53704;52.532;6.426;2022-07-29T06:35:20;101731.94;;;14.81;73.77
63006;BME280;53704;52.532;6.426;2022-07-29T06:37:45;101730.25;;;14.97;73.22
63006;BME280;53704;52.532;6.426;2022-07-29T06:40:11;101739.09;;;14.82;76.44
63006;BME280;53704;52.532;6.426;2022-07-29T06:42:55;101732.22;;;14.37;74.90
63006;BME280;53704;52.532;6.426;2022-07-29T06:45:20;101734.94;;;14.37;74.52
63006;BME280;53704;52.532;6.426;2022-07-29T06:47:46;101727.03;;;14.52;76.86
63006;BME280;53704;52.532;6.426;2022-07-29T06:50:11;101731.94;;;14.48;76.59
63006;BME280;53704;52.532;6.426;2022-07-29T06:52:38;101723.09;;;14.30;78.73
63006;BME280;53704;52.532;6.426;2022-07-29T06:55:03;101723.91;;;14.14;79.21
63006;BME280;53704;52.532;6.426;2022-07-29T06:57:29;101715.16;;;14.45;79.66
63006;BME280;53704;52.532;6.426;2022-07-29T06:59:58;101720.41;;;14.55;81.86
63006;BME280;53704;52.532;6.426;2022-07-29T07:02:23;101714.13;;;14.38;81.54
63006;BME280;53704;52.532;6.426;2022-07-29T07:04:49;101703.75;;;14.17;83.13
63006;BME280;53704;52.532;6.426;2022-07-29T07:07:15;101690.91;;;14.19;84.27
63006;BME280;53704;52.532;6.426;2022-07-29T07:09:40;101690.91;;;14.19;83.88
63006;BME280;53704;52.532;6.426;2022-07-29T07:12:06;101691.56;;;14.13;82.91
63006;BME280;53704;52.532;6.426;2022-07-29T07:14:32;101698.88;;;14.28;82.03
63006;BME280;53704;52.532;6.426;2022-07-29T07:16:57;101711.28;;;14.64;82.76
63006;BME280;53704;52.532;6.426;2022-07-29T07:19:22;101726.19;;;14.84;82.13
63006;BME280;53704;52.532;6.426;2022-07-29T07:21:48;101724.50;;;14.67;83.81
63006;BME280;53704;52.532;6.426;2022-07-29T07:24:13;101712.63;;;14.52;83.00
63006;BME280;53704;52.532;6.426;2022-07-29T07:26:39;101716.69;;;14.56;85.98
63006;BME280;53704;52.532;6.426;2022-07-29T07:29:05;101712.31;;;15.04;82.35
63006;BME280;53704;52.532;6.426;2022-07-29T07:31:31;101716.50;;;15.23;81.58
63006;BME280;53704;52.532;6.426;2022-07-29T07:33:56;101717.19;;;15.00;83.15
63006;BME280;53704;52.532;6.426;2022-07-29T07:36:23;101708.22;;;15.16;81.89
63006;BME280;53704;52.532;6.426;2022-07-29T07:38:49;101713.97;;;15.22;83.23
63006;BME280;53704;52.532;6.426;2022-07-29T07:41:14;101708.78;;;14.71;82.88
63006;BME280;53704;52.532;6.426;2022-07-29T07:43:40;101688.53;;;14.16;84.59
63006;BME280;53704;52.532;6.426;2022-07-29T07:46:05;101675.19;;;14.30;84.16
63006;BME280;53704;52.532;6.426;2022-07-29T07:48:31;101675.19;;;14.55;82.64
63006;BME280;53704;52.532;6.426;2022-07-29T07:50:56;101697.53;;;15.07;80.45
63006;BME280;53704;52.532;6.426;2022-07-29T07:53:22;101702.78;;;15.16;84.83
63006;BME280;53704;52.532;6.426;2022-07-29T07:55:47;101703.63;;;15.00;83.46
63006;BME280;53704;52.532;6.426;2022-07-29T07:58:13;101705.50;;;15.08;80.65
63006;BME280;53704;52.532;6.426;2022-07-29T08:00:38;101698.22;;;15.09;82.24
63006;BME280;53704;52.532;6.426;2022-07-29T08:03:04;101702.16;;;14.90;82.93
63006;BME280;53704;52.532;6.426;2022-07-29T08:05:29;101693.69;;;14.93;80.00
63006;BME280;53704;52.532;6.426;2022-07-29T08:07:55;101692.78;;;15.17;79.23
63006;BME280;53704;52.532;6.426;2022-07-29T08:10:20;101689.75;;;15.12;81.38
63006;BME280;53704;52.532;6.426;2022-07-29T08:13:06;101687.00;;;15.20;79.64
63006;BME280;53704;52.532;6.426;2022-07-29T08:15:32;101680.78;;;15.03;80.05
63006;BME280;53704;52.532;6.426;2022-07-29T08:17:58;101682.44;;;15.20;79.65
63006;BME280;53704;52.532;6.426;2022-07-29T08:20:24;101679.31;;;15.40;80.17
63006;BME280;53704;52.532;6.426;2022-07-29T08:22:49;101679.88;;;15.75;77.51
63006;BME280;53704;52.532;6.426;2022-07-29T08:25:15;101687.19;;;15.66;78.23
63006;BME280;53704;52.532;6.426;2022-07-29T08:27:40;101683.75;;;15.72;78.66
63006;BME280;53704;52.532;6.426;2022-07-29T08:30:06;101680.88;;;15.74;77.48
63006;BME280;53704;52.532;6.426;2022-07-29T08:32:32;101676.44;;;15.81;77.63
63006;BME280;53704;52.532;6.426;2022-07-29T08:34:57;101682.28;;;16.01;78.22
63006;BME280;53704;52.532;6.426;2022-07-29T08:37:23;101681.50;;;16.16;73.57
63006;BME280;53704;52.532;6.426;2022-07-29T08:39:48;101691.19;;;16.41;76.59
63006;BME280;53704;52.532;6.426;2022-07-29T08:42:14;101688.19;;;16.05;75.81
63006;BME280;53704;52.532;6.426;2022-07-29T08:44:41;101686.81;;;16.09;74.27
63006;BME280;53704;52.532;6.426;2022-07-29T08:47:07;101688.47;;;16.18;76.73
63006;BME280;53704;52.532;6.426;2022-07-29T08:49:34;101701.56;;;16.38;75.31
63006;BME280;53704;52.532;6.426;2022-07-29T08:52:00;101714.53;;;16.74;78.88
63006;BME280;53704;52.532;6.426;2022-07-29T08:54:26;101707.25;;;16.51;76.66
63006;BME280;53704;52.532;6.426;2022-07-29T08:56:53;101696.00;;;16.31;78.02
63006;BME280;53704;52.532;6.426;2022-07-29T08:59:20;101699.00;;;16.82;74.94
63006;BME280;53704;52.532;6.426;2022-07-29T09:01:48;101712.56;;;16.91;74.68
63006;BME280;53704;52.532;6.426;2022-07-29T09:04:16;101709.44;;;16.56;73.32
63006;BME280;53704;52.532;6.426;2022-07-29T09:06:46;101704.81;;;16.79;75.05
63006;BME280;53704;52.532;6.426;2022-07-29T09:09:12;101706.63;;;16.64;74.26
63006;BME280;53704;52.532;6.426;2022-07-29T09:11:39;101703.16;;;16.32;73.37
63006;BME280;53704;52.532;6.426;2022-07-29T09:14:05;101699.25;;;16.26;72.74
63006;BME280;53704;52.532;6.426;2022-07-29T09:16:50;101701.22;;;16.18;72.49
63006;BME280;53704;52.532;6.426;2022-07-29T09:19:30;101707.34;;;16.35;73.52
63006;BME280;53704;52.532;6.426;2022-07-29T09:21:57;101704.28;;;16.38;73.30
63006;BME280;53704;52.532;6.426;2022-07-29T09:24:24;101710.16;;;16.50;73.10
63006;BME280;53704;52.532;6.426;2022-07-29T09:26:49;101705.09;;;16.46;75.84
63006;BME280;53704;52.532;6.426;2022-07-29T09:29:20;101715.59;;;16.50;74.35
63006;BME280;53704;52.532;6.426;2022-07-29T09:31:51;101718.50;;;16.48;73.72
63006;BME280;53704;52.532;6.426;2022-07-29T09:34:30;101714.00;;;16.78;77.15
63006;BME280;53704;52.532;6.426;2022-07-29T09:36:56;101717.97;;;16.68;73.72
63006;BME280;53704;52.532;6.426;2022-07-29T09:39:32;101711.16;;;16.95;74.71
63006;BME280;53704;52.532;6.426;2022-07-29T09:42:02;101729.22;;;17.26;74.38
63006;BME280;53704;52.532;6.426;2022-07-29T09:44:44;101718.06;;;17.35;73.85
63006;BME280;53704;52.532;6.426;2022-07-29T09:47:10;101725.34;;;17.20;72.20
63006;BME280;53704;52.532;6.426;2022-07-29T09:52:18;101727.88;;;17.07;71.83
63006;BME280;53704;52.532;6.426;2022-07-29T09:54:44;101723.19;;;17.00;72.04
63006;BME280;53704;52.532;6.426;2022-07-29T09:57:26;101718.09;;;16.97;72.00
63006;BME280;53704;52.532;6.426;2022-07-29T10:00:04;101722.84;;;17.33;74.42
63006;BME280;53704;52.532;6.426;2022-07-29T10:02:33;101723.66;;;17.49;72.78
63006;BME280;53704;52.532;6.426;2022-07-29T10:05:00;101729.59;;;17.38;71.96
63006;BME280;53704;52.532;6.426;2022-07-29T10:07:26;101736.09;;;17.66;72.26
63006;BME280;53704;52.532;6.426;2022-07-29T10:10:07;101735.31;;;17.87;69.99
63006;BME280;53704;52.532;6.426;2022-07-29T10:12:33;101739.72;;;17.73;69.80
63006;BME280;53704;52.532;6.426;2022-07-29T10:15:01;101756.50;;;18.22;68.85
63006;BME280;53704;52.532;6.426;2022-07-29T10:17:27;101756.38;;;18.30;69.67
63006;BME280;53704;52.532;6.426;2022-07-29T10:19:53;101754.75;;;17.99;69.09
63006;BME280;53704;52.532;6.426;2022-07-29T10:22:19;101742.81;;;18.00;69.38
63006;BME280;53704;52.532;6.426;2022-07-29T10:24:44;101743.22;;;17.82;70.67
63006;BME280;53704;52.532;6.426;2022-07-29T10:27:10;101745.28;;;18.32;70.31
63006;BME280;53704;52.532;6.426;2022-07-29T10:29:35;101740.16;;;18.22;69.05
63006;BME280;53704;52.532;6.426;2022-07-29T10:34:58;101744.47;;;18.74;67.79
63006;BME280;53704;52.532;6.426;2022-07-29T10:37:37;101735.44;;;18.74;69.68
63006;BME280;53704;52.532;6.426;2022-07-29T10:43:30;101724.13;;;18.55;67.79
63006;BME280;53704;52.532;6.426;2022-07-29T10:46:01;101731.00;;;18.73;66.98
63006;BME280;53704;52.532;6.426;2022-07-29T10:48:27;101726.97;;;19.12;66.82
63006;BME280;53704;52.532;6.426;2022-07-29T10:53:47;101718.81;;;19.19;67.39
63006;BME280;53704;52.532;6.426;2022-07-29T10:56:29;101714.59;;;18.88;67.54
63006;BME280;53704;52.532;6.426;2022-07-29T11:01:47;101712.72;;;19.16;67.82
63006;BME280;53704;52.532;6.426;2022-07-29T11:04:13;101710.63;;;18.90;66.00
63006;BME280;53704;52.532;6.426;2022-07-29T11:07:11;101707.25;;;19.51;63.28
63006;BME280;53704;52.532;6.426;2022-07-29T11:09:38;101711.41;;;19.41;65.40
63006;BME280;53704;52.532;6.426;2022-07-29T11:12:11;101710.84;;;19.59;65.10
63006;BME280;53704;52.532;6.426;2022-07-29T11:14:59;101706.66;;;19.56;62.55
63006;BME280;53704;52.532;6.426;2022-07-29T11:17:26;101704.72;;;19.92;65.06
63006;BME280;53704;52.532;6.426;2022-07-29T11:22:56;101706.59;;;19.84;63.69
63006;BME280;53704;52.532;6.426;2022-07-29T11:25:23;101695.53;;;20.06;62.45
63006;BME280;53704;52.532;6.426;2022-07-29T11:27:49;101703.78;;;20.39;61.56
63006;BME280;53704;52.532;6.426;2022-07-29T11:30:15;101703.66;;;20.68;60.56
63006;BME280;53704;52.532;6.426;2022-07-29T11:32:43;101709.09;;;20.61;59.13
63006;BME280;53704;52.532;6.426;2022-07-29T11:35:22;101703.00;;;20.79;58.55
63006;BME280;53704;52.532;6.426;2022-07-29T11:38:26;101702.56;;;21.09;59.03
63006;BME280;53704;52.532;6.426;2022-07-29T11:43:56;101696.44;;;21.33;59.27
63006;BME280;53704;52.532;6.426;2022-07-29T11:49:07;101695.84;;;20.71;59.80
63006;BME280;53704;52.532;6.426;2022-07-29T11:51:35;101697.75;;;20.98;59.90
63006;BME280;53704;52.532;6.426;2022-07-29T11:54:01;101699.19;;;21.13;57.58
63006;BME280;53704;52.532;6.426;2022-07-29T11:56:31;101707.34;;;21.47;59.17
63006;BME280;53704;52.532;6.426;2022-07-29T11:59:07;101698.53;;;21.25;61.01
63006;BME280;53704;52.532;6.426;2022-07-29T12:01:34;101697.47;;;21.53;58.76
63006;BME280;53704;52.532;6.426;2022-07-29T12:04:06;101696.06;;;21.89;56.77
63006;BME280;53704;52.532;6.426;2022-07-29T12:06:35;101694.63;;;21.73;56.09
63006;BME280;53704;52.532;6.426;2022-07-29T12:09:07;101691.00;;;21.85;54.37
63006;BME280;53704;52.532;6.426;2022-07-29T12:11:32;101690.16;;;22.30;54.74
63006;BME280;53704;52.532;6.426;2022-07-29T12:13:58;101694.31;;;21.94;52.22
63006;BME280;53704;52.532;6.426;2022-07-29T12:16:36;101704.19;;;22.72;55.11
63006;BME280;53704;52.532;6.426;2022-07-29T12:19:03;101704.53;;;22.83;52.05
63006;BME280;53704;52.532;6.426;2022-07-29T12:21:49;101704.56;;;23.26;52.14
63006;BME280;53704;52.532;6.426;2022-07-29T12:24:15;101696.72;;;22.80;53.92
63006;BME280;53704;52.532;6.426;2022-07-29T12:26:54;101696.06;;;22.59;52.71
63006;BME280;53704;52.532;6.426;2022-07-29T12:29:20;101704.31;;;23.09;52.70
63006;BME280;53704;52.532;6.426;2022-07-29T12:31:46;101694.50;;;22.95;52.29
63006;BME280;53704;52.532;6.426;2022-07-29T12:34:12;101704.88;;;22.93;52.07
63006;BME280;53704;52.532;6.426;2022-07-29T12:36:40;101706.34;;;23.39;51.44
63006;BME280;53704;52.532;6.426;2022-07-29T12:39:06;101702.91;;;23.44;47.97
63006;BME280;53704;52.532;6.426;2022-07-29T12:41:32;101701.44;;;23.41;49.35
63006;BME280;53704;52.532;6.426;2022-07-29T12:43:57;101705.38;;;23.82;50.52
63006;BME280;53704;52.532;6.426;2022-07-29T12:46:23;101696.69;;;23.67;50.91
63006;BME280;53704;52.532;6.426;2022-07-29T12:48:52;101700.84;;;24.07;49.88
63006;BME280;53704;52.532;6.426;2022-07-29T12:51:32;101696.06;;;24.02;49.29
63006;BME280;53704;52.532;6.426;2022-07-29T12:56:30;101688.53;;;23.60;48.73
63006;BME280;53704;52.532;6.426;2022-07-29T12:58:56;101693.06;;;24.64;48.58
63006;BME280;53704;52.532;6.426;2022-07-29T13:01:21;101688.41;;;25.00;47.74
63006;BME280;53704;52.532;6.426;2022-07-29T13:06:33;101688.69;;;24.14;47.39
63006;BME280;53704;52.532;6.426;2022-07-29T13:09:06;101690.19;;;25.42;43.71
63006;BME280;53704;52.532;6.426;2022-07-29T13:11:38;101684.31;;;25.03;46.47
63006;BME280;53704;52.532;6.426;2022-07-29T13:14:05;101683.59;;;24.30;45.72
63006;BME280;53704;52.532;6.426;2022-07-29T13:16:31;101685.50;;;24.71;46.86
63006;BME280;53704;52.532;6.426;2022-07-29T13:19:12;101688.25;;;25.54;46.30
63006;BME280;53704;52.532;6.426;2022-07-29T13:21:38;101683.38;;;25.33;43.56
63006;BME280;53704;52.532;6.426;2022-07-29T13:24:07;101690.53;;;25.57;42.60
63006;BME280;53704;52.532;6.426;2022-07-29T13:26:33;101679.94;;;26.07;43.03
63006;BME280;53704;52.532;6.426;2022-07-29T13:28:58;101668.66;;;26.71;43.36
63006;BME280;53704;52.532;6.426;2022-07-29T13:31:23;101672.22;;;27.44;41.08
63006;BME280;53704;52.532;6.426;2022-07-29T13:33:49;101667.97;;;27.20;42.22
63006;BME280;53704;52.532;6.426;2022-07-29T13:36:14;101666.91;;;26.36;42.30
63006;BME280;53704;52.532;6.426;2022-07-29T13:38:40;101664.56;;;27.13;40.52
63006;BME280;53704;52.532;6.426;2022-07-29T13:41:05;101660.19;;;28.05;39.12
63006;BME280;53704;52.532;6.426;2022-07-29T13:43:31;101665.59;;;27.46;42.74